Terminal Aerodrome Forecast
Issued by NWS

Home | Current Version | Previous Version | Text Only | Print | Product List | Glossary On
Versions: 1 2 3 4 5 6 7 8 9 10 11 12 13 14 15 16 17 18 19 20 21
000
FTUS41 KBGM 011700
TAFRME
TAF
KRME 011720Z 0118/0218 34006KT P6SM OVC050
      TEMPO 0123/0203 4SM -SN OVC015
     FM020300 08006KT 3SM -SN OVC015
      TEMPO 0203/0206 2SM -SN
     FM020600 07009KT 2SM -SN OVC015
     FM021100 09010KT 1SM -SN OVC008=

USA.gov is the U.S. government's official web portal to all federal, state and local government web resources and services.